createdAt,value
2023-04-11T00:00:22.314Z,16.17
2023-04-11T00:01:22.341Z,16.17
2023-04-11T00:02:22.489Z,16.22
2023-04-11T00:03:22.733Z,16.17
2023-04-11T00:04:22.557Z,16.19
2023-04-11T00:05:22.448Z,16.22
2023-04-11T00:06:22.491Z,16.17
2023-04-11T00:07:22.530Z,16.22
2023-04-11T00:08:22.580Z,16.23
2023-04-11T00:09:22.593Z,16.20
2023-04-11T00:10:22.637Z,16.28
2023-04-11T00:11:22.692Z,16.22
2023-04-11T00:12:22.749Z,16.31
2023-04-11T00:13:22.819Z,16.37
2023-04-11T00:14:22.868Z,16.26
2023-04-11T00:15:22.905Z,16.31
2023-04-11T00:16:22.974Z,16.36
2023-04-11T00:17:23.052Z,16.29
2023-04-11T00:18:23.061Z,16.34
2023-04-11T00:19:23.107Z,16.31
2023-04-11T00:20:23.130Z,16.39
2023-04-11T00:21:23.177Z,16.31
2023-04-11T00:22:23.253Z,16.36
2023-04-11T00:23:23.286Z,16.36
2023-04-11T00:24:23.371Z,16.37
2023-04-11T00:25:23.412Z,16.37
2023-04-11T00:26:23.464Z,16.34
2023-04-11T00:27:23.506Z,16.39
2023-04-11T00:28:23.573Z,16.36
2023-04-11T00:29:23.623Z,16.37
2023-04-11T00:30:23.697Z,16.39
2023-04-11T00:31:23.736Z,16.37
2023-04-11T00:32:23.843Z,16.40
2023-04-11T00:33:23.836Z,16.32
2023-04-11T00:34:23.863Z,16.36
2023-04-11T00:35:24.858Z,16.34
2023-04-11T00:36:23.988Z,16.34
2023-04-11T00:37:23.994Z,16.37
2023-04-11T00:38:24.047Z,16.42
2023-04-11T00:39:24.134Z,16.38
2023-04-11T00:40:24.142Z,16.42
2023-04-11T00:41:24.186Z,16.37
2023-04-11T00:42:24.229Z,16.39
2023-04-11T00:43:24.267Z,16.37
2023-04-11T00:44:24.288Z,16.43
2023-04-11T00:45:24.343Z,16.42
2023-04-11T00:46:24.431Z,16.46
2023-04-11T00:47:24.420Z,16.40
2023-04-11T00:48:24.412Z,16.43
2023-04-11T00:49:24.469Z,16.43
2023-04-11T00:50:24.539Z,16.43
2023-04-11T00:51:24.557Z,16.40
2023-04-11T00:52:24.634Z,16.43
2023-04-11T00:53:24.680Z,16.43
2023-04-11T00:54:24.721Z,16.43
2023-04-11T00:55:24.730Z,16.43
2023-04-11T00:56:24.814Z,16.46
2023-04-11T00:57:24.817Z,16.40
2023-04-11T00:58:24.904Z,16.42
2023-04-11T00:59:24.942Z,16.48
2023-04-11T01:00:25.008Z,16.42
2023-04-11T01:01:25.501Z,16.43
2023-04-11T01:02:25.255Z,16.40
2023-04-11T01:03:25.213Z,16.45
2023-04-11T01:04:25.181Z,16.40
2023-04-11T01:05:25.235Z,16.45
2023-04-11T01:06:25.287Z,16.42
2023-04-11T01:07:25.368Z,16.40
2023-04-11T01:08:25.395Z,16.38
2023-04-11T01:09:25.455Z,16.49
2023-04-11T01:10:25.533Z,16.42
2023-04-11T01:11:25.602Z,16.42
2023-04-11T01:12:25.642Z,16.42
2023-04-11T01:13:25.694Z,16.42
2023-04-11T01:14:25.751Z,16.42
2023-04-11T01:15:25.797Z,16.42
2023-04-11T01:16:25.822Z,16.38
2023-04-11T01:17:25.955Z,16.40
2023-04-11T01:18:25.920Z,16.38
2023-04-11T01:19:25.995Z,16.46
2023-04-11T01:20:26.051Z,16.46
2023-04-11T01:21:26.105Z,16.43
2023-04-11T01:22:26.150Z,16.46
2023-04-11T01:23:26.192Z,16.46
2023-04-11T01:24:26.223Z,16.42
2023-04-11T01:25:26.264Z,16.46
2023-04-11T01:26:26.320Z,16.44
2023-04-11T01:27:26.366Z,16.50
2023-04-11T01:28:26.459Z,16.51
2023-04-11T01:29:26.502Z,16.49
2023-04-11T01:30:26.571Z,16.51
2023-04-11T01:31:26.591Z,16.43
2023-04-11T01:32:26.656Z,16.49
2023-04-11T01:33:26.658Z,16.55
2023-04-11T01:34:26.808Z,16.50
2023-04-11T01:35:26.902Z,16.57
2023-04-11T01:36:26.983Z,16.52
2023-04-11T01:37:27.034Z,16.55
2023-04-11T01:38:27.073Z,16.54
2023-04-11T01:39:27.173Z,16.52
2023-04-11T01:40:27.193Z,16.48
2023-04-11T01:41:27.279Z,16.55
2023-04-11T01:42:27.316Z,16.55
2023-04-11T01:43:27.401Z,16.54
2023-04-11T01:44:27.445Z,16.58
2023-04-11T01:45:27.469Z,16.64
2023-04-11T01:46:27.548Z,16.63
2023-04-11T01:47:27.660Z,16.57
2023-04-11T01:48:27.689Z,16.60
2023-04-11T01:49:27.701Z,16.63
2023-04-11T01:50:27.766Z,16.63
2023-04-11T01:51:27.776Z,16.69
2023-04-11T01:52:27.839Z,16.74
2023-04-11T01:53:27.914Z,16.72
2023-04-11T01:54:27.925Z,16.70
2023-04-11T01:55:27.980Z,16.72
2023-04-11T01:56:28.026Z,16.72
2023-04-11T01:57:28.069Z,16.80
2023-04-11T01:58:28.131Z,16.76
2023-04-11T01:59:28.176Z,16.74
2023-04-11T02:00:28.250Z,16.81
2023-04-11T02:01:28.298Z,16.78
2023-04-11T02:02:28.403Z,16.74
2023-04-11T02:03:28.530Z,16.81
2023-04-11T02:04:28.405Z,16.75
2023-04-11T02:05:28.413Z,16.78
2023-04-11T02:06:28.467Z,16.75
2023-04-11T02:07:28.523Z,16.74
2023-04-11T02:08:28.560Z,16.75
2023-04-11T02:09:28.636Z,16.72
2023-04-11T02:10:28.718Z,16.69
2023-04-11T02:11:28.822Z,16.71
2023-04-11T02:12:28.785Z,16.76
2023-04-11T02:13:28.834Z,16.78
2023-04-11T02:14:28.876Z,16.75
2023-04-11T02:15:28.930Z,16.76
2023-04-11T02:16:28.930Z,16.75
2023-04-11T02:17:29.032Z,16.80
2023-04-11T02:18:29.051Z,16.81
2023-04-11T02:19:29.117Z,16.81
2023-04-11T02:20:29.148Z,16.81
2023-04-11T02:21:29.208Z,16.80
2023-04-11T02:22:29.304Z,16.81
2023-04-11T02:23:29.297Z,16.76
2023-04-11T02:24:29.368Z,16.81
2023-04-11T02:25:29.419Z,16.81
2023-04-11T02:26:29.484Z,16.91
2023-04-11T02:27:29.531Z,16.85
2023-04-11T02:28:29.615Z,16.88
2023-04-11T02:29:29.649Z,16.85
2023-04-11T02:30:29.789Z,16.85
2023-04-11T02:31:29.912Z,16.88
2023-04-11T02:32:29.834Z,16.91
2023-04-11T02:33:29.906Z,16.90
2023-04-11T02:34:29.928Z,16.80
2023-04-11T02:35:30.031Z,16.84
2023-04-11T02:36:30.064Z,16.88
2023-04-11T02:37:30.131Z,16.93
2023-04-11T02:38:30.197Z,16.87
2023-04-11T02:39:30.248Z,16.85
2023-04-11T02:40:30.295Z,16.85
2023-04-11T02:41:30.362Z,16.87
2023-04-11T02:42:30.425Z,16.90
2023-04-11T02:43:30.913Z,16.88
2023-04-11T02:44:30.501Z,16.88
2023-04-11T02:45:30.574Z,16.84
2023-04-11T02:46:30.655Z,16.90
2023-04-11T02:47:30.707Z,16.90
2023-04-11T02:48:30.754Z,16.87
2023-04-11T02:49:30.823Z,16.85
2023-04-11T02:50:30.917Z,16.87
2023-04-11T02:51:30.944Z,16.88
2023-04-11T02:52:31.003Z,16.82
2023-04-11T02:53:31.065Z,16.91
2023-04-11T02:54:31.084Z,16.87
2023-04-11T02:55:31.139Z,16.91
2023-04-11T02:56:31.177Z,16.88
2023-04-11T02:57:31.242Z,16.88
2023-04-11T02:58:31.317Z,16.84
2023-04-11T02:59:31.384Z,16.85
2023-04-11T03:00:31.438Z,16.90
2023-04-11T03:01:31.504Z,16.84
2023-04-11T03:02:31.873Z,16.88
2023-04-11T03:03:31.860Z,16.88
2023-04-11T03:04:31.827Z,16.85
2023-04-11T03:05:31.750Z,16.88
2023-04-11T03:06:31.778Z,16.90
2023-04-11T03:07:31.838Z,16.85
2023-04-11T03:08:31.912Z,16.98
2023-04-11T03:09:31.985Z,16.93
2023-04-11T03:10:32.045Z,16.87
2023-04-11T03:11:32.104Z,16.91
2023-04-11T03:12:32.161Z,16.88
2023-04-11T03:13:32.226Z,16.88
2023-04-11T03:14:32.274Z,16.91
2023-04-11T03:15:32.438Z,16.96
2023-04-11T03:16:32.434Z,16.87
2023-04-11T03:17:32.447Z,16.88
2023-04-11T03:18:32.515Z,16.95
2023-04-11T03:19:32.561Z,16.93
2023-04-11T03:20:32.699Z,16.91
2023-04-11T03:21:32.666Z,16.98
2023-04-11T03:22:32.724Z,16.99
2023-04-11T03:23:32.733Z,16.96
2023-04-11T03:24:32.771Z,16.98
2023-04-11T03:25:32.829Z,16.99
2023-04-11T03:26:32.918Z,17.07
2023-04-11T03:27:32.989Z,17.08
2023-04-11T03:28:32.999Z,17.03
2023-04-11T03:29:33.082Z,17.10
2023-04-11T03:30:33.136Z,17.08
2023-04-11T03:31:33.257Z,17.07
2023-04-11T03:32:33.290Z,17.08
2023-04-11T03:33:33.324Z,17.13
2023-04-11T03:34:33.375Z,17.13
2023-04-11T03:35:33.455Z,17.11
2023-04-11T03:36:33.502Z,17.14
2023-04-11T03:37:33.524Z,17.08
2023-04-11T03:38:33.550Z,17.11
2023-04-11T03:39:33.592Z,17.10
2023-04-11T03:40:33.654Z,17.07
2023-04-11T03:41:33.731Z,17.07
2023-04-11T03:42:33.749Z,17.08
2023-04-11T03:43:33.803Z,17.07
2023-04-11T03:44:33.852Z,17.07
2023-04-11T03:45:33.935Z,17.08
2023-04-11T03:46:34.027Z,17.08
2023-04-11T03:47:34.065Z,17.08
2023-04-11T03:48:34.089Z,17.08
2023-04-11T03:49:34.152Z,17.08
2023-04-11T03:50:34.137Z,17.11
2023-04-11T03:51:34.202Z,17.13
2023-04-11T03:52:34.272Z,17.13
2023-04-11T03:53:34.346Z,17.11
2023-04-11T03:54:34.371Z,17.14
2023-04-11T03:55:34.429Z,17.10
2023-04-11T03:56:34.462Z,17.08
2023-04-11T03:57:34.526Z,17.16
2023-04-11T03:58:34.598Z,17.08
2023-04-11T03:59:34.680Z,17.13
2023-04-11T04:00:34.670Z,17.08
2023-04-11T04:01:34.744Z,17.14
2023-04-11T04:02:34.825Z,17.13
2023-04-11T04:03:35.183Z,17.20
2023-04-11T04:04:34.993Z,17.19
2023-04-11T04:05:34.940Z,17.17
2023-04-11T04:06:34.969Z,17.17
2023-04-11T04:07:35.056Z,17.13
2023-04-11T04:08:35.097Z,17.13
2023-04-11T04:09:35.157Z,17.22
2023-04-11T04:10:35.213Z,17.17
2023-04-11T04:11:35.238Z,17.22
2023-04-11T04:12:35.287Z,17.20
2023-04-11T04:13:35.330Z,17.17
2023-04-11T04:14:35.363Z,17.16
2023-04-11T04:15:35.491Z,17.14
2023-04-11T04:16:35.527Z,17.14
2023-04-11T04:17:35.500Z,17.23
2023-04-11T04:18:35.531Z,17.16
2023-04-11T04:19:35.601Z,17.17
2023-04-11T04:20:35.617Z,17.16
2023-04-11T04:21:35.680Z,17.14
2023-04-11T04:22:35.713Z,17.17
2023-04-11T04:23:35.749Z,17.14
2023-04-11T04:24:35.794Z,17.14
2023-04-11T04:25:35.828Z,17.14
2023-04-11T04:26:35.871Z,17.19
2023-04-11T04:27:35.922Z,17.11
2023-04-11T04:28:35.994Z,17.11
2023-04-11T04:29:36.027Z,17.10
2023-04-11T04:30:36.086Z,17.17
2023-04-11T04:31:36.183Z,17.13
2023-04-11T04:32:36.194Z,17.17
2023-04-11T04:33:36.224Z,17.12
2023-04-11T04:34:36.260Z,17.17
2023-04-11T04:35:36.318Z,17.17
2023-04-11T04:36:36.337Z,17.25
2023-04-11T04:37:36.380Z,17.31
2023-04-11T04:38:36.404Z,17.31
2023-04-11T04:39:36.438Z,17.31
2023-04-11T04:40:36.492Z,17.32
2023-04-11T04:41:36.557Z,17.29
2023-04-11T04:42:36.620Z,17.28
2023-04-11T04:43:36.634Z,17.32
2023-04-11T04:44:36.709Z,17.28
2023-04-11T04:45:36.774Z,17.20
2023-04-11T04:46:36.809Z,17.34
2023-04-11T04:47:36.858Z,17.28
2023-04-11T04:48:36.906Z,17.31
2023-04-11T04:49:36.934Z,17.26
2023-04-11T04:50:36.974Z,17.29
2023-04-11T04:51:37.019Z,17.28
2023-04-11T04:52:37.063Z,17.25
2023-04-11T04:53:37.108Z,17.26
2023-04-11T04:54:37.123Z,17.23
2023-04-11T04:55:37.151Z,17.31
2023-04-11T04:56:37.176Z,17.26
2023-04-11T04:57:37.248Z,17.31
2023-04-11T04:58:37.263Z,17.31
2023-04-11T04:59:37.296Z,17.28
2023-04-11T05:00:37.321Z,17.26
2023-04-11T05:01:37.430Z,17.23
2023-04-11T05:02:37.524Z,17.29
2023-04-11T05:03:37.645Z,17.31
2023-04-11T05:04:37.448Z,17.29
2023-04-11T05:05:37.493Z,17.28
2023-04-11T05:06:37.495Z,17.23
2023-04-11T05:07:37.546Z,17.32
2023-04-11T05:08:37.598Z,17.33
2023-04-11T05:09:37.728Z,17.33
2023-04-11T05:10:37.691Z,17.28
2023-04-11T05:11:37.709Z,17.36
2023-04-11T05:12:37.758Z,17.28
2023-04-11T05:13:37.799Z,17.31
2023-04-11T05:14:37.870Z,17.28
2023-04-11T05:15:37.907Z,17.31
2023-04-11T05:16:37.984Z,17.28
2023-04-11T05:17:38.034Z,17.28
2023-04-11T05:18:38.030Z,17.29
2023-04-11T05:19:38.058Z,17.31
2023-04-11T05:20:38.103Z,17.31
2023-04-11T05:21:38.160Z,17.29
2023-04-11T05:22:38.195Z,17.28
2023-04-11T05:23:38.236Z,17.25
2023-04-11T05:24:38.291Z,17.29
2023-04-11T05:25:38.336Z,17.23
2023-04-11T05:26:38.388Z,17.43
2023-04-11T05:27:38.400Z,17.69
2023-04-11T05:28:38.489Z,17.96
2023-04-11T05:29:38.516Z,18.76
2023-04-11T05:30:38.561Z,18.59
2023-04-11T05:31:38.561Z,18.62
2023-04-11T05:32:38.616Z,19.61
2023-04-11T05:33:38.627Z,20.07
2023-04-11T05:34:38.664Z,20.79
2023-04-11T05:35:38.703Z,20.72
2023-04-11T05:36:38.696Z,20.87
2023-04-11T05:37:38.742Z,21.26
2023-04-11T05:38:38.993Z,21.30
2023-04-11T05:39:38.829Z,21.06
2023-04-11T05:40:38.889Z,21.15
2023-04-11T05:41:38.945Z,21.38
2023-04-11T05:42:38.996Z,21.82
2023-04-11T05:43:39.051Z,21.72
2023-04-11T05:44:39.178Z,21.45
2023-04-11T05:45:39.159Z,21.52
2023-04-11T05:46:39.275Z,21.58
2023-04-11T05:47:39.334Z,21.60
2023-04-11T05:48:40.280Z,21.80
2023-04-11T05:49:39.283Z,21.81
2023-04-11T05:50:39.233Z,21.91
2023-04-11T05:51:39.222Z,22.02
2023-04-11T05:52:39.198Z,22.08
2023-04-11T05:53:39.233Z,22.19
2023-04-11T05:54:39.209Z,22.25
2023-04-11T05:55:39.166Z,22.26
2023-04-11T05:56:39.157Z,22.27
2023-04-11T05:57:39.158Z,22.37
2023-04-11T05:58:39.159Z,22.38
2023-04-11T05:59:39.187Z,22.41
2023-04-11T06:00:39.226Z,22.67
2023-04-11T06:01:39.213Z,22.44
2023-04-11T06:02:39.313Z,22.47
2023-04-11T06:03:39.279Z,22.58
2023-04-11T06:04:39.337Z,22.55
2023-04-11T06:05:39.193Z,22.59
2023-04-11T06:06:39.191Z,22.62
2023-04-11T06:07:39.217Z,22.45
2023-04-11T06:08:39.204Z,22.52
2023-04-11T06:09:39.188Z,22.57
2023-04-11T06:10:39.186Z,22.57
2023-04-11T06:11:39.228Z,22.56
2023-04-11T06:12:39.201Z,22.58
2023-04-11T06:13:39.249Z,22.64
2023-04-11T06:14:40.369Z,22.62
2023-04-11T06:15:39.342Z,22.65
2023-04-11T06:16:39.295Z,22.68
2023-04-11T06:17:39.363Z,22.69
2023-04-11T06:18:39.369Z,22.69
2023-04-11T06:19:39.406Z,22.76
2023-04-11T06:20:39.439Z,22.81
2023-04-11T06:21:39.482Z,22.80
2023-04-11T06:22:39.553Z,22.79
2023-04-11T06:23:39.596Z,22.87
2023-04-11T06:24:39.666Z,22.80
2023-04-11T06:25:39.742Z,22.77
2023-04-11T06:26:39.821Z,22.87
2023-04-11T06:27:39.844Z,22.83
2023-04-11T06:28:39.905Z,22.86
2023-04-11T06:29:39.967Z,22.86
2023-04-11T06:30:40.031Z,22.95
2023-04-11T06:31:40.096Z,23.36
2023-04-11T06:32:40.119Z,22.81
2023-04-11T06:33:40.091Z,23.16
2023-04-11T06:34:40.101Z,22.63
2023-04-11T06:35:40.177Z,22.18
2023-04-11T06:36:40.168Z,21.36
2023-04-11T06:37:40.246Z,21.20
2023-04-11T06:38:40.294Z,21.68
2023-04-11T06:39:40.560Z,21.58
2023-04-11T06:40:40.399Z,21.47
2023-04-11T06:41:40.424Z,21.46
2023-04-11T06:42:40.500Z,21.21
2023-04-11T06:43:40.547Z,21.25
2023-04-11T06:44:40.694Z,21.32
2023-04-11T06:45:40.644Z,21.30
2023-04-11T06:46:40.763Z,21.13
2023-04-11T06:47:40.832Z,21.19
2023-04-11T06:48:40.860Z,21.49
2023-04-11T06:49:40.865Z,21.59
2023-04-11T06:50:40.880Z,21.57
2023-04-11T06:51:40.946Z,21.44
2023-04-11T06:52:40.976Z,21.50
2023-04-11T06:53:41.046Z,21.59
2023-04-11T06:54:41.088Z,21.77
2023-04-11T06:55:41.145Z,21.68
2023-04-11T06:56:41.138Z,21.81
2023-04-11T06:57:41.124Z,21.82
2023-04-11T06:58:41.143Z,22.06
2023-04-11T06:59:41.168Z,21.89
2023-04-11T07:00:41.196Z,21.97
2023-04-11T07:01:41.300Z,21.89
2023-04-11T07:02:41.322Z,22.03
2023-04-11T07:03:41.367Z,21.99
2023-04-11T07:04:41.441Z,21.99
2023-04-11T07:05:41.251Z,21.94
2023-04-11T07:06:41.286Z,21.99
2023-04-11T07:07:41.285Z,21.99
2023-04-11T07:08:41.518Z,22.04
2023-04-11T07:09:41.299Z,22.10
2023-04-11T07:10:41.360Z,22.08
2023-04-11T07:11:41.387Z,22.02
2023-04-11T07:12:41.444Z,22.09
2023-04-11T07:13:41.482Z,22.09
2023-04-11T07:14:41.511Z,22.12
2023-04-11T07:15:41.607Z,22.11
2023-04-11T07:16:41.736Z,22.09
2023-04-11T07:17:41.747Z,22.14
2023-04-11T07:18:41.773Z,22.04
2023-04-11T07:19:41.795Z,22.07
2023-04-11T07:20:42.063Z,22.11
2023-04-11T07:21:41.907Z,22.06
2023-04-11T07:22:41.962Z,22.00
2023-04-11T07:23:42.005Z,21.97
2023-04-11T07:24:42.056Z,21.89
2023-04-11T07:25:42.122Z,21.84
2023-04-11T07:26:42.195Z,21.68
2023-04-11T07:27:42.145Z,21.76
2023-04-11T07:28:42.553Z,21.49
2023-04-11T07:29:42.150Z,21.33
2023-04-11T07:30:42.539Z,21.28
2023-04-11T07:31:42.264Z,21.02
2023-04-11T07:32:42.276Z,20.65
2023-04-11T07:33:42.429Z,20.35
2023-04-11T07:34:42.336Z,20.22
2023-04-11T07:35:42.363Z,20.29
2023-04-11T07:36:42.375Z,20.12
2023-04-11T07:37:42.443Z,20.07
2023-04-11T07:38:42.451Z,20.10
2023-04-11T07:39:42.512Z,20.01
2023-04-11T07:40:42.599Z,20.04
2023-04-11T07:41:42.654Z,20.06
2023-04-11T07:42:42.672Z,20.03
2023-04-11T07:43:43.113Z,20.06
2023-04-11T07:44:42.649Z,20.04
2023-04-11T07:45:43.078Z,20.07
2023-04-11T07:46:42.654Z,20.11
2023-04-11T07:47:42.734Z,20.10
2023-04-11T07:48:43.084Z,20.16
2023-04-11T07:49:42.715Z,20.18
2023-04-11T07:50:42.745Z,20.17
2023-04-11T07:51:42.758Z,20.15
2023-04-11T07:52:42.793Z,20.16
2023-04-11T07:53:43.056Z,20.16
2023-04-11T07:54:42.846Z,20.15
2023-04-11T07:55:42.888Z,20.15
2023-04-11T07:56:42.940Z,20.18
2023-04-11T07:57:42.930Z,20.10
2023-04-11T07:58:42.981Z,20.05
2023-04-11T07:59:43.184Z,20.08
2023-04-11T08:00:43.049Z,20.02
2023-04-11T08:01:43.196Z,20.00
2023-04-11T08:02:43.276Z,19.91
2023-04-11T08:03:43.259Z,19.94
2023-04-11T08:04:43.327Z,19.93
2023-04-11T08:05:43.288Z,19.96
2023-04-11T08:06:43.334Z,19.88
2023-04-11T08:07:43.363Z,19.89
2023-04-11T08:08:43.416Z,19.91
2023-04-11T08:09:43.514Z,19.82
2023-04-11T08:10:43.529Z,19.88
2023-04-11T08:11:43.570Z,19.94
2023-04-11T08:12:43.617Z,19.86
2023-04-11T08:13:43.673Z,19.93
2023-04-11T08:14:43.732Z,19.92
2023-04-11T08:15:43.771Z,19.92
2023-04-11T08:16:43.910Z,19.93
2023-04-11T08:17:43.980Z,20.46
2023-04-11T08:18:43.937Z,20.86
2023-04-11T08:19:43.987Z,21.15
2023-04-11T08:20:44.078Z,21.42
2023-04-11T08:21:44.027Z,21.47
2023-04-11T08:22:44.082Z,21.20
2023-04-11T08:23:44.093Z,21.55
2023-04-11T08:24:44.132Z,21.91
2023-04-11T08:25:44.199Z,22.48
2023-04-11T08:26:44.142Z,22.47
2023-04-11T08:27:44.149Z,23.00
2023-04-11T08:28:44.155Z,23.25
2023-04-11T08:29:44.190Z,23.33
2023-04-11T08:30:44.376Z,23.58
2023-04-11T08:31:44.331Z,23.85
2023-04-11T08:32:44.544Z,23.64
2023-04-11T08:33:44.429Z,23.85
2023-04-11T08:34:44.508Z,24.04
2023-04-11T08:35:44.601Z,24.11
2023-04-11T08:36:44.618Z,23.82
2023-04-11T08:37:44.632Z,24.14
2023-04-11T08:38:44.676Z,23.97
2023-04-11T08:39:44.744Z,24.05
2023-04-11T08:40:44.770Z,23.96
2023-04-11T08:41:44.806Z,24.32
2023-04-11T08:42:44.855Z,24.30
2023-04-11T08:43:44.900Z,24.01
2023-04-11T08:44:44.958Z,24.08
2023-04-11T08:45:45.006Z,24.15
2023-04-11T08:46:45.087Z,23.98
2023-04-11T08:47:45.922Z,24.27
2023-04-11T08:48:45.163Z,24.71
2023-04-11T08:49:45.200Z,24.87
2023-04-11T08:50:45.229Z,24.75
2023-04-11T08:51:45.261Z,24.82
2023-04-11T08:52:45.369Z,24.77
2023-04-11T08:53:45.325Z,24.78
2023-04-11T08:54:45.315Z,24.40
2023-04-11T08:55:45.356Z,24.63
2023-04-11T08:56:45.375Z,24.65
2023-04-11T08:57:45.419Z,24.49
2023-04-11T08:58:45.413Z,24.41
2023-04-11T08:59:45.462Z,24.49
2023-04-11T09:00:45.506Z,24.33
2023-04-11T09:01:45.479Z,24.27
2023-04-11T09:02:45.593Z,24.18
2023-04-11T09:03:45.517Z,24.09
2023-04-11T09:04:45.565Z,24.16
2023-04-11T09:05:45.506Z,23.86
2023-04-11T09:06:45.503Z,23.84
2023-04-11T09:07:45.562Z,23.81
2023-04-11T09:08:45.541Z,23.74
2023-04-11T09:09:45.508Z,23.67
2023-04-11T09:10:45.810Z,23.56
2023-04-11T09:11:45.575Z,23.66
2023-04-11T09:12:45.588Z,23.55
2023-04-11T09:13:45.616Z,23.76
2023-04-11T09:14:45.657Z,24.14
2023-04-11T09:15:45.727Z,23.96
2023-04-11T09:16:45.736Z,24.14
2023-04-11T09:17:45.785Z,24.00
2023-04-11T09:18:45.797Z,23.85
2023-04-11T09:19:48.943Z,24.08
2023-04-11T09:20:45.854Z,24.30
2023-04-11T09:21:45.818Z,24.08
2023-04-11T09:22:45.813Z,24.01
2023-04-11T09:23:45.832Z,24.23
2023-04-11T09:24:45.813Z,24.35
2023-04-11T09:25:45.971Z,23.93
2023-04-11T09:26:46.099Z,24.12
2023-04-11T09:27:45.793Z,24.46
2023-04-11T09:28:46.093Z,24.80
2023-04-11T09:29:45.809Z,25.26
2023-04-11T09:30:45.789Z,24.78
2023-04-11T09:31:46.735Z,24.67
2023-04-11T09:32:45.805Z,24.38
2023-04-11T09:33:45.778Z,24.21
2023-04-11T09:34:45.737Z,24.09
2023-04-11T09:35:45.781Z,24.16
2023-04-11T09:36:45.720Z,24.16
2023-04-11T09:37:45.741Z,24.09
2023-04-11T09:38:45.712Z,24.07
2023-04-11T09:39:45.723Z,24.06
2023-04-11T09:40:45.692Z,24.07
2023-04-11T09:41:45.702Z,24.01
2023-04-11T09:42:45.681Z,24.05
2023-04-11T09:43:45.671Z,24.01
2023-04-11T09:44:45.670Z,23.99
2023-04-11T09:45:54.103Z,23.91
2023-04-11T09:46:46.741Z,24.00
2023-04-11T09:47:45.680Z,23.97
2023-04-11T09:48:47.104Z,23.97
2023-04-11T09:49:45.647Z,23.97
2023-04-11T09:50:45.621Z,23.99
2023-04-11T09:51:45.638Z,24.01
2023-04-11T09:52:45.650Z,24.05
2023-04-11T09:53:45.628Z,24.03
2023-04-11T09:54:45.615Z,24.01
2023-04-11T09:55:45.604Z,24.07
2023-04-11T09:56:45.630Z,24.07
2023-04-11T09:57:45.605Z,24.11
2023-04-11T09:58:45.648Z,24.21
2023-04-11T09:59:45.590Z,24.18
2023-04-11T10:00:45.597Z,24.25
2023-04-11T10:01:45.660Z,24.26
2023-04-11T10:02:45.728Z,24.35
2023-04-11T10:03:45.639Z,24.42
2023-04-11T10:04:45.653Z,24.44
2023-04-11T10:05:45.635Z,24.44
2023-04-11T10:06:45.666Z,24.46
2023-04-11T10:07:45.631Z,24.53
2023-04-11T10:08:45.675Z,24.65
2023-04-11T10:09:45.742Z,24.68
2023-04-11T10:10:46.608Z,24.82
2023-04-11T10:11:45.811Z,24.87
2023-04-11T10:12:45.880Z,24.95
2023-04-11T10:13:45.936Z,25.01
2023-04-11T10:14:45.934Z,24.97
2023-04-11T10:15:45.982Z,25.02
2023-04-11T10:16:46.105Z,25.14
2023-04-11T10:17:46.202Z,25.15
2023-04-11T10:18:46.122Z,25.09
2023-04-11T10:19:46.080Z,25.09
2023-04-11T10:20:46.143Z,25.16
2023-04-11T10:21:46.109Z,25.37
2023-04-11T10:22:47.130Z,25.74
2023-04-11T10:23:46.647Z,25.42
2023-04-11T10:24:46.228Z,25.75
2023-04-11T10:25:46.319Z,25.89
2023-04-11T10:26:46.353Z,25.95
2023-04-11T10:27:46.348Z,26.12
2023-04-11T10:28:46.629Z,26.02
2023-04-11T10:29:46.421Z,25.86
2023-04-11T10:30:46.463Z,25.70
2023-04-11T10:31:46.465Z,25.58
2023-04-11T10:32:46.467Z,25.58
2023-04-11T10:33:46.491Z,25.67
2023-04-11T10:34:46.502Z,25.95
2023-04-11T10:35:46.579Z,25.81
2023-04-11T10:36:46.609Z,26.16
2023-04-11T10:37:47.658Z,26.26
2023-04-11T10:38:46.704Z,26.18
2023-04-11T10:39:46.729Z,26.13
2023-04-11T10:40:46.754Z,26.19
2023-04-11T10:41:46.868Z,26.06
2023-04-11T10:42:46.875Z,25.70
2023-04-11T10:43:46.944Z,25.75
2023-04-11T10:44:46.968Z,25.95
2023-04-11T10:45:47.013Z,26.10
2023-04-11T10:46:47.157Z,25.92
2023-04-11T10:47:47.158Z,26.08
2023-04-11T10:48:47.171Z,27.04
2023-04-11T10:49:47.355Z,26.86
2023-04-11T10:50:47.212Z,26.78
2023-04-11T10:51:47.323Z,26.74
2023-04-11T10:52:47.274Z,26.68
2023-04-11T10:53:47.334Z,27.12
2023-04-11T10:54:47.459Z,27.24
2023-04-11T10:55:47.415Z,27.34
2023-04-11T10:56:47.452Z,27.18
2023-04-11T10:57:47.484Z,27.18
2023-04-11T10:58:47.494Z,27.23
2023-04-11T10:59:47.526Z,27.33
2023-04-11T11:00:47.597Z,27.55
2023-04-11T11:01:52.328Z,27.38
2023-04-11T11:02:48.777Z,27.51
2023-04-11T11:03:47.686Z,27.64
2023-04-11T11:04:47.702Z,27.58
2023-04-11T11:05:47.583Z,27.95
2023-04-11T11:06:56.727Z,27.95
2023-04-11T11:07:48.623Z,27.94
2023-04-11T11:08:47.620Z,28.12
2023-04-11T11:09:47.567Z,28.00
2023-04-11T11:10:47.536Z,28.01
2023-04-11T11:11:47.541Z,28.34
2023-04-11T11:12:47.536Z,28.36
2023-04-11T11:13:47.528Z,28.49
2023-04-11T11:14:47.624Z,28.07
2023-04-11T11:15:47.501Z,27.89
2023-04-11T11:16:47.570Z,27.71
2023-04-11T11:17:47.668Z,27.55
2023-04-11T11:18:47.496Z,27.28
2023-04-11T11:19:47.526Z,27.06
2023-04-11T11:20:47.460Z,26.64
2023-04-11T11:21:47.452Z,26.54
2023-04-11T11:22:47.456Z,26.57
2023-04-11T11:23:47.486Z,26.68
2023-04-11T11:24:47.523Z,26.34
2023-04-11T11:25:47.640Z,26.50
2023-04-11T11:26:47.914Z,26.55
2023-04-11T11:27:48.136Z,26.23
2023-04-11T11:28:48.423Z,26.22
2023-04-11T11:29:48.582Z,26.09
2023-04-11T11:30:48.810Z,26.39
2023-04-11T11:31:49.092Z,26.58
2023-04-11T11:32:49.306Z,26.84
2023-04-11T11:33:49.549Z,26.72
2023-04-11T11:34:49.726Z,26.55
2023-04-11T11:35:49.902Z,26.48
2023-04-11T11:36:50.127Z,26.33
2023-04-11T11:37:50.353Z,26.21
2023-04-11T11:38:50.551Z,26.20
2023-04-11T11:39:50.731Z,26.16
2023-04-11T11:40:50.888Z,26.17
2023-04-11T11:41:50.929Z,26.07
2023-04-11T11:42:50.951Z,26.06
2023-04-11T11:43:51.013Z,26.04
2023-04-11T11:44:51.075Z,25.98
2023-04-11T11:45:51.081Z,25.96
2023-04-11T11:46:51.137Z,26.03
2023-04-11T11:47:51.199Z,25.94
2023-04-11T11:48:51.220Z,25.94
2023-04-11T11:49:51.250Z,25.88
2023-04-11T11:50:51.246Z,25.78
2023-04-11T11:51:51.283Z,25.78
2023-04-11T11:52:51.324Z,25.83
2023-04-11T11:53:51.329Z,25.78
2023-04-11T11:54:51.344Z,25.64
2023-04-11T11:55:51.402Z,25.63
2023-04-11T11:56:51.448Z,25.53
2023-04-11T11:57:51.527Z,25.56
2023-04-11T11:58:51.512Z,25.43
2023-04-11T11:59:51.527Z,25.43
2023-04-11T12:00:51.553Z,25.60
2023-04-11T12:01:51.612Z,25.42
2023-04-11T12:02:51.747Z,25.37
2023-04-11T12:03:51.884Z,25.32
2023-04-11T12:04:51.829Z,25.27
2023-04-11T12:05:51.700Z,25.25
2023-04-11T12:06:51.729Z,25.16
2023-04-11T12:07:51.746Z,25.08
2023-04-11T12:08:51.789Z,25.08
2023-04-11T12:09:51.792Z,24.95
2023-04-11T12:10:51.817Z,25.05
2023-04-11T12:11:51.869Z,25.31
2023-04-11T12:12:53.758Z,25.23
2023-04-11T12:13:51.911Z,25.38
2023-04-11T12:14:51.918Z,25.56
2023-04-11T12:15:51.961Z,25.63
2023-04-11T12:16:51.917Z,25.73
2023-04-11T12:17:52.059Z,25.92
2023-04-11T12:18:51.975Z,25.93
2023-04-11T12:19:51.963Z,26.09
2023-04-11T12:20:51.950Z,26.19
2023-04-11T12:21:51.941Z,26.20
2023-04-11T12:22:54.158Z,26.32
2023-04-11T12:23:51.931Z,26.26
2023-04-11T12:24:51.979Z,26.35
2023-04-11T12:25:51.974Z,26.32
2023-04-11T12:27:06.480Z,26.23
2023-04-11T12:27:52.915Z,26.28
2023-04-11T12:28:51.933Z,26.32
2023-04-11T12:29:51.901Z,26.34
2023-04-11T12:30:52.102Z,26.34
2023-04-11T12:31:52.023Z,26.42
2023-04-11T12:32:52.011Z,26.48
2023-04-11T12:33:51.897Z,26.33
2023-04-11T12:34:51.887Z,25.72
2023-04-11T12:35:51.866Z,25.74
2023-04-11T12:36:51.898Z,25.75
2023-04-11T12:37:51.959Z,25.85
2023-04-11T12:38:52.036Z,25.58
2023-04-11T12:39:52.092Z,25.69
2023-04-11T12:40:56.805Z,25.67
2023-04-11T12:41:53.135Z,25.65
2023-04-11T12:43:52.137Z,25.09
2023-04-11T12:44:52.130Z,25.23
2023-04-11T12:45:52.109Z,25.25
2023-04-11T12:46:52.173Z,25.24
2023-04-11T12:47:52.174Z,25.24
2023-04-11T12:48:52.086Z,24.83
2023-04-11T12:49:52.087Z,24.78
2023-04-11T12:50:52.082Z,24.73
2023-04-11T12:51:52.059Z,24.68
2023-04-11T12:52:52.068Z,24.76
2023-04-11T12:53:52.082Z,24.70